createdAt,value
2018-10-07T00:00:15.543Z,14.47
2018-10-07T00:01:15.581Z,14.38
2018-10-07T00:02:15.631Z,14.38
2018-10-07T00:03:15.671Z,14.35
2018-10-07T00:04:15.723Z,14.32
2018-10-07T00:05:15.792Z,14.37
2018-10-07T00:06:15.831Z,14.38
2018-10-07T00:07:15.867Z,14.39
2018-10-07T00:08:15.913Z,14.32
2018-10-07T00:09:15.964Z,14.37
2018-10-07T00:10:16.038Z,14.24
2018-10-07T00:11:16.066Z,14.29
2018-10-07T00:12:16.118Z,14.34
2018-10-07T00:13:16.169Z,14.35
2018-10-07T00:14:16.216Z,14.37
2018-10-07T00:15:16.390Z,14.32
2018-10-07T00:16:16.325Z,14.31
2018-10-07T00:17:16.356Z,14.21
2018-10-07T00:18:16.412Z,14.27
2018-10-07T00:19:16.479Z,14.25
2018-10-07T00:20:16.499Z,14.31
2018-10-07T00:21:16.552Z,14.24
2018-10-07T00:22:16.649Z,14.32
2018-10-07T00:23:16.653Z,14.31
2018-10-07T00:24:16.704Z,14.31
2018-10-07T00:25:16.767Z,14.29
2018-10-07T00:26:16.814Z,14.32
2018-10-07T00:27:16.845Z,14.27
2018-10-07T00:28:16.918Z,14.31
2018-10-07T00:29:17.038Z,14.21
2018-10-07T00:30:16.992Z,14.29
2018-10-07T00:31:17.043Z,14.29
2018-10-07T00:32:17.125Z,14.28
2018-10-07T00:33:17.167Z,14.28
2018-10-07T00:34:17.188Z,14.39
2018-10-07T00:35:17.238Z,14.28
2018-10-07T00:36:17.335Z,14.35
2018-10-07T00:37:17.373Z,14.35
2018-10-07T00:38:17.388Z,14.37
2018-10-07T00:39:17.450Z,14.28
2018-10-07T00:40:17.487Z,14.28
2018-10-07T00:41:17.536Z,14.27
2018-10-07T00:42:17.603Z,14.27
2018-10-07T00:43:17.754Z,14.27
2018-10-07T00:44:17.703Z,14.17
2018-10-07T00:45:17.729Z,14.27
2018-10-07T00:46:17.778Z,14.24
2018-10-07T00:47:17.826Z,14.28
2018-10-07T00:48:17.875Z,14.17
2018-10-07T00:49:17.955Z,14.24
2018-10-07T00:50:18.014Z,14.24
2018-10-07T00:51:18.051Z,14.17
2018-10-07T00:52:18.080Z,14.12
2018-10-07T00:53:18.121Z,14.12
2018-10-07T00:54:18.176Z,14.01
2018-10-07T00:55:18.223Z,14.02
2018-10-07T00:56:18.293Z,13.95
2018-10-07T00:57:18.317Z,13.83
2018-10-07T00:58:18.368Z,13.79
2018-10-07T00:59:18.423Z,13.77
2018-10-07T01:00:18.469Z,13.76
2018-10-07T01:01:18.534Z,13.76
2018-10-07T01:02:18.582Z,13.71
2018-10-07T01:03:18.611Z,13.67
2018-10-07T01:04:18.661Z,13.69
2018-10-07T01:05:18.707Z,13.73
2018-10-07T01:06:18.779Z,13.84
2018-10-07T01:07:18.805Z,13.71
2018-10-07T01:08:18.872Z,13.74
2018-10-07T01:09:18.919Z,13.83
2018-10-07T01:10:18.952Z,13.88
2018-10-07T01:11:19.004Z,13.91
2018-10-07T01:12:19.068Z,13.84
2018-10-07T01:13:19.136Z,13.89
2018-10-07T01:14:19.149Z,13.84
2018-10-07T01:15:19.196Z,13.88
2018-10-07T01:16:19.244Z,13.87
2018-10-07T01:17:19.294Z,13.92
2018-10-07T01:18:19.371Z,13.87
2018-10-07T01:19:19.393Z,13.80
2018-10-07T01:20:19.442Z,13.88
2018-10-07T01:21:19.490Z,13.87
2018-10-07T01:22:19.539Z,13.80
2018-10-07T01:23:19.614Z,13.83
2018-10-07T01:24:19.655Z,13.87
2018-10-07T01:25:19.712Z,13.88
2018-10-07T01:26:19.732Z,13.88
2018-10-07T01:27:19.780Z,13.94
2018-10-07T01:28:19.836Z,13.89
2018-10-07T01:29:19.882Z,13.95
2018-10-07T01:30:19.951Z,13.99
2018-10-07T01:31:19.978Z,13.96
2018-10-07T01:32:20.040Z,14.01
2018-10-07T01:33:20.076Z,14.01
2018-10-07T01:34:20.136Z,13.96
2018-10-07T01:35:20.191Z,13.99
2018-10-07T01:36:20.220Z,13.99
2018-10-07T01:37:20.270Z,13.96
2018-10-07T01:38:20.321Z,13.99
2018-10-07T01:39:20.377Z,13.99
2018-10-07T01:40:20.445Z,13.96
2018-10-07T01:41:20.473Z,13.99
2018-10-07T01:42:20.550Z,14.01
2018-10-07T01:43:20.562Z,13.96
2018-10-07T01:44:20.613Z,14.01
2018-10-07T01:45:20.668Z,13.95
2018-10-07T01:46:20.829Z,13.98
2018-10-07T01:47:20.792Z,13.96
2018-10-07T01:48:20.806Z,13.94
2018-10-07T01:49:20.856Z,13.96
2018-10-07T01:50:20.903Z,14.01
2018-10-07T01:51:20.954Z,13.94
2018-10-07T01:52:21.023Z,13.98
2018-10-07T01:53:21.051Z,13.94
2018-10-07T01:54:21.100Z,13.98
2018-10-07T01:55:21.162Z,13.96
2018-10-07T01:56:21.230Z,14.04
2018-10-07T01:57:21.249Z,14.07
2018-10-07T01:58:21.297Z,14.04
2018-10-07T01:59:21.351Z,13.99
2018-10-07T02:00:21.401Z,14.04
2018-10-07T02:01:21.465Z,14.02
2018-10-07T02:02:21.511Z,13.98
2018-10-07T02:03:21.539Z,13.96
2018-10-07T02:04:21.603Z,14.04
2018-10-07T02:05:21.642Z,14.07
2018-10-07T02:06:21.714Z,14.09
2018-10-07T02:07:21.757Z,14.01
2018-10-07T02:08:21.784Z,13.99
2018-10-07T02:09:21.844Z,14.10
2018-10-07T02:10:21.883Z,13.95
2018-10-07T02:11:21.934Z,14.01
2018-10-07T02:12:22.025Z,14.01
2018-10-07T02:13:22.033Z,13.99
2018-10-07T02:14:22.079Z,14.01
2018-10-07T02:15:22.127Z,14.02
2018-10-07T02:16:22.182Z,13.98
2018-10-07T02:17:22.248Z,13.99
2018-10-07T02:18:22.275Z,13.98
2018-10-07T02:19:22.324Z,14.06
2018-10-07T02:20:22.375Z,13.95
2018-10-07T02:21:22.433Z,13.99
2018-10-07T02:22:22.499Z,14.01
2018-10-07T02:23:22.544Z,13.99
2018-10-07T02:24:22.567Z,14.06
2018-10-07T02:25:22.615Z,14.09
2018-10-07T02:26:22.665Z,14.04
2018-10-07T02:27:22.755Z,14.14
2018-10-07T02:28:22.763Z,14.12
2018-10-07T02:29:22.812Z,14.14
2018-10-07T02:30:22.867Z,14.17
2018-10-07T02:31:22.907Z,14.16
2018-10-07T02:32:22.974Z,14.14
2018-10-07T02:33:23.025Z,14.17
2018-10-07T02:34:23.061Z,14.16
2018-10-07T02:35:23.102Z,14.16
2018-10-07T02:36:23.150Z,14.16
2018-10-07T02:37:23.234Z,14.14
2018-10-07T02:38:23.268Z,14.19
2018-10-07T02:39:23.293Z,14.14
2018-10-07T02:40:23.368Z,14.16
2018-10-07T02:41:23.396Z,14.17
2018-10-07T02:42:23.446Z,14.20
2018-10-07T02:43:23.493Z,14.13
2018-10-07T02:44:23.640Z,14.13
2018-10-07T02:45:23.601Z,14.17
2018-10-07T02:46:23.666Z,14.19
2018-10-07T02:47:23.688Z,14.17
2018-10-07T02:48:23.735Z,14.19
2018-10-07T02:49:23.790Z,14.21
2018-10-07T02:50:23.839Z,14.20
2018-10-07T02:51:23.907Z,14.31
2018-10-07T02:52:23.939Z,14.25
2018-10-07T02:53:24.059Z,14.29
2018-10-07T02:54:24.031Z,14.25
2018-10-07T02:55:24.106Z,14.38
2018-10-07T02:56:24.127Z,14.37
2018-10-07T02:57:24.186Z,14.32
2018-10-07T02:58:24.228Z,14.39
2018-10-07T02:59:24.274Z,14.37
2018-10-07T03:00:24.349Z,14.37
2018-10-07T03:01:24.375Z,14.32
2018-10-07T03:02:24.424Z,14.39
2018-10-07T03:03:24.476Z,14.37
2018-10-07T03:04:24.521Z,14.38
2018-10-07T03:05:24.595Z,14.39
2018-10-07T03:06:24.618Z,14.37
2018-10-07T03:07:24.666Z,14.37
2018-10-07T03:08:24.753Z,14.43
2018-10-07T03:09:24.775Z,14.35
2018-10-07T03:10:24.821Z,14.25
2018-10-07T03:11:24.867Z,14.27
2018-10-07T03:12:24.915Z,14.32
2018-10-07T03:13:24.989Z,14.35
2018-10-07T03:14:25.013Z,14.27
2018-10-07T03:15:25.071Z,14.32
2018-10-07T03:16:25.110Z,14.20
2018-10-07T03:17:25.158Z,14.19
2018-10-07T03:18:25.237Z,14.25
2018-10-07T03:19:25.256Z,14.19
2018-10-07T03:20:25.311Z,14.16
2018-10-07T03:21:25.354Z,14.20
2018-10-07T03:22:25.429Z,14.24
2018-10-07T03:23:25.451Z,14.24
2018-10-07T03:24:25.524Z,14.14
2018-10-07T03:25:25.553Z,14.27
2018-10-07T03:26:25.602Z,14.21
2018-10-07T03:27:25.653Z,14.28
2018-10-07T03:28:25.699Z,14.27
2018-10-07T03:29:25.795Z,14.27
2018-10-07T03:30:25.808Z,14.24
2018-10-07T03:31:25.854Z,14.25
2018-10-07T03:32:25.891Z,14.31
2018-10-07T03:33:25.944Z,14.27
2018-10-07T03:34:26.019Z,14.21
2018-10-07T03:35:26.040Z,14.24
2018-10-07T03:36:26.091Z,14.21
2018-10-07T03:37:26.137Z,14.21
2018-10-07T03:38:26.187Z,14.34
2018-10-07T03:39:26.258Z,14.28
2018-10-07T03:40:26.339Z,14.24
2018-10-07T03:41:26.337Z,14.28
2018-10-07T03:42:26.388Z,14.34
2018-10-07T03:43:26.433Z,14.27
2018-10-07T03:44:26.501Z,14.24
2018-10-07T03:45:26.547Z,14.28
2018-10-07T03:46:26.578Z,14.21
2018-10-07T03:47:26.687Z,14.24
2018-10-07T03:48:26.676Z,14.19
2018-10-07T03:49:26.763Z,14.24
2018-10-07T03:50:26.781Z,14.27
2018-10-07T03:51:26.822Z,14.21
2018-10-07T03:52:26.876Z,14.35
2018-10-07T03:53:26.926Z,14.19
2018-10-07T03:54:27.071Z,14.24
2018-10-07T03:55:27.020Z,14.27
2018-10-07T03:56:27.088Z,14.34
2018-10-07T03:57:27.118Z,14.21
2018-10-07T03:58:27.170Z,14.24
2018-10-07T03:59:27.224Z,14.24
2018-10-07T04:00:27.269Z,14.24
2018-10-07T04:01:27.410Z,14.25
2018-10-07T04:02:27.368Z,14.24
2018-10-07T04:03:27.410Z,14.24
2018-10-07T04:04:27.466Z,14.27
2018-10-07T04:05:27.514Z,14.24
2018-10-07T04:06:27.586Z,14.32
2018-10-07T04:07:27.619Z,14.29
2018-10-07T04:08:27.682Z,14.31
2018-10-07T04:09:27.726Z,14.29
2018-10-07T04:10:27.760Z,14.28
2018-10-07T04:11:27.826Z,14.31
2018-10-07T04:12:27.856Z,14.29
2018-10-07T04:13:27.925Z,14.29
2018-10-07T04:14:27.973Z,14.31
2018-10-07T04:15:28.008Z,14.29
2018-10-07T04:16:28.050Z,14.31
2018-10-07T04:17:28.114Z,14.31
2018-10-07T04:18:28.147Z,14.27
2018-10-07T04:19:28.225Z,14.29
2018-10-07T04:20:28.244Z,14.31
2018-10-07T04:21:28.296Z,14.31
2018-10-07T04:22:28.351Z,14.28
2018-10-07T04:23:28.422Z,14.32
2018-10-07T04:24:28.463Z,14.27
2018-10-07T04:25:28.491Z,14.21
2018-10-07T04:26:28.547Z,14.28
2018-10-07T04:27:28.610Z,14.27
2018-10-07T04:28:28.637Z,14.27
2018-10-07T04:29:28.686Z,14.21
2018-10-07T04:30:28.739Z,14.32
2018-10-07T04:31:28.785Z,14.29
2018-10-07T04:32:28.856Z,14.21
2018-10-07T04:33:28.886Z,14.21
2018-10-07T04:34:28.943Z,14.25
2018-10-07T04:35:28.992Z,14.24
2018-10-07T04:36:29.027Z,14.19
2018-10-07T04:37:29.102Z,14.21
2018-10-07T04:38:29.129Z,14.24
2018-10-07T04:39:29.177Z,14.27
2018-10-07T04:40:29.233Z,14.20
2018-10-07T04:41:29.296Z,14.20
2018-10-07T04:42:29.328Z,14.16
2018-10-07T04:43:29.378Z,14.24
2018-10-07T04:44:29.442Z,14.19
2018-10-07T04:45:29.471Z,14.35
2018-10-07T04:46:29.600Z,14.34
2018-10-07T04:47:29.568Z,14.34
2018-10-07T04:48:29.615Z,14.24
2018-10-07T04:49:29.665Z,14.16
2018-10-07T04:50:29.753Z,14.28
2018-10-07T04:51:29.766Z,14.24
2018-10-07T04:52:29.813Z,14.24
2018-10-07T04:53:29.863Z,14.21
2018-10-07T04:54:29.911Z,14.25
2018-10-07T04:55:29.980Z,14.25
2018-10-07T04:56:30.045Z,14.20
2018-10-07T04:57:30.132Z,14.19
2018-10-07T04:58:30.110Z,14.21
2018-10-07T04:59:30.157Z,14.16
2018-10-07T05:00:30.211Z,14.12
2018-10-07T05:01:30.278Z,14.16
2018-10-07T05:02:30.301Z,14.14
2018-10-07T05:03:30.354Z,14.12
2018-10-07T05:04:30.508Z,14.16
2018-10-07T05:05:30.448Z,14.10
2018-10-07T05:06:30.503Z,14.14
2018-10-07T05:07:30.548Z,14.13
2018-10-07T05:08:30.613Z,14.17
2018-10-07T05:09:30.646Z,14.17
2018-10-07T05:10:30.706Z,14.17
2018-10-07T05:11:30.851Z,14.12
2018-10-07T05:12:30.841Z,14.09
2018-10-07T05:13:30.859Z,14.10
2018-10-07T05:14:30.892Z,14.14
2018-10-07T05:15:30.938Z,14.10
2018-10-07T05:16:30.989Z,14.12
2018-10-07T05:17:31.066Z,14.17
2018-10-07T05:18:31.107Z,14.20
2018-10-07T05:19:31.147Z,14.16
2018-10-07T05:20:31.184Z,14.19
2018-10-07T05:21:31.235Z,14.17
2018-10-07T05:22:31.307Z,14.17
2018-10-07T05:23:31.331Z,14.17
2018-10-07T05:24:31.405Z,14.19
2018-10-07T05:25:31.496Z,14.21
2018-10-07T05:26:31.477Z,14.20
2018-10-07T05:27:31.531Z,14.20
2018-10-07T05:28:31.581Z,14.19
2018-10-07T05:29:31.657Z,14.20
2018-10-07T05:30:31.678Z,14.17
2018-10-07T05:31:31.724Z,14.25
2018-10-07T05:32:31.778Z,14.25
2018-10-07T05:33:31.961Z,14.29
2018-10-07T05:34:31.910Z,14.29
2018-10-07T05:35:31.919Z,14.19
2018-10-07T05:36:31.969Z,14.32
2018-10-07T05:37:32.082Z,14.21
2018-10-07T05:38:32.067Z,14.28
2018-10-07T05:39:32.134Z,14.34
2018-10-07T05:40:32.181Z,14.29
2018-10-07T05:41:32.235Z,14.29
2018-10-07T05:42:32.261Z,14.29
2018-10-07T05:43:32.312Z,14.27
2018-10-07T05:44:32.412Z,14.35
2018-10-07T05:45:32.436Z,14.31
2018-10-07T05:46:32.484Z,14.27
2018-10-07T05:47:32.516Z,14.31
2018-10-07T05:48:32.576Z,14.38
2018-10-07T05:49:32.605Z,14.37
2018-10-07T05:50:32.674Z,14.34
2018-10-07T05:51:32.724Z,14.39
2018-10-07T05:52:32.753Z,14.46
2018-10-07T05:53:32.803Z,14.54
2018-10-07T05:54:32.849Z,14.53
2018-10-07T05:55:32.933Z,14.52
2018-10-07T05:56:32.971Z,14.50
2018-10-07T05:57:32.995Z,14.47
2018-10-07T05:58:33.041Z,14.60
2018-10-07T05:59:33.121Z,14.65
2018-10-07T06:00:33.141Z,14.72
2018-10-07T06:01:33.218Z,14.72
2018-10-07T06:02:33.251Z,14.78
2018-10-07T06:03:33.294Z,14.83
2018-10-07T06:04:33.358Z,14.75
2018-10-07T06:05:33.389Z,14.72
2018-10-07T06:06:33.443Z,14.78
2018-10-07T06:07:33.565Z,14.74
2018-10-07T06:08:33.557Z,14.81
2018-10-07T06:09:33.581Z,14.67
2018-10-07T06:10:33.640Z,14.69
2018-10-07T06:11:33.688Z,14.69
2018-10-07T06:12:33.734Z,14.68
2018-10-07T06:13:33.808Z,14.74
2018-10-07T06:14:33.957Z,14.62
2018-10-07T06:15:33.879Z,14.67
2018-10-07T06:16:33.942Z,14.67
2018-10-07T06:17:33.977Z,14.65
2018-10-07T06:18:34.044Z,14.83
2018-10-07T06:19:34.073Z,14.72
2018-10-07T06:20:34.157Z,14.74
2018-10-07T06:21:34.179Z,14.78
2018-10-07T06:22:34.224Z,14.80
2018-10-07T06:23:34.271Z,14.87
2018-10-07T06:24:34.318Z,14.91
2018-10-07T06:25:34.409Z,14.87
2018-10-07T06:26:34.417Z,15.01
2018-10-07T06:27:34.494Z,14.98
2018-10-07T06:28:34.518Z,14.90
2018-10-07T06:29:34.567Z,15.03
2018-10-07T06:30:34.635Z,14.94
2018-10-07T06:31:34.718Z,15.02
2018-10-07T06:32:34.716Z,15.11
2018-10-07T06:33:34.762Z,15.09
2018-10-07T06:34:34.812Z,15.17
2018-10-07T06:35:34.992Z,15.09
2018-10-07T06:36:34.957Z,15.11
2018-10-07T06:37:34.979Z,15.21
2018-10-07T06:38:35.029Z,15.21
2018-10-07T06:39:35.077Z,15.20
2018-10-07T06:40:35.104Z,15.17
2018-10-07T06:41:35.155Z,15.24
2018-10-07T06:42:35.296Z,15.28
2018-10-07T06:43:35.264Z,15.27
2018-10-07T06:44:35.333Z,15.28
2018-10-07T06:45:35.420Z,15.30
2018-10-07T06:46:35.402Z,15.36
2018-10-07T06:47:35.477Z,15.36
2018-10-07T06:48:35.497Z,15.38
2018-10-07T06:49:35.553Z,15.33
2018-10-07T06:50:35.600Z,15.45
2018-10-07T06:51:35.646Z,15.39
2018-10-07T06:52:35.730Z,15.38
2018-10-07T06:53:35.751Z,15.43
2018-10-07T06:54:35.800Z,15.49
2018-10-07T06:55:35.851Z,15.54
2018-10-07T06:56:35.918Z,15.52
2018-10-07T06:57:35.946Z,15.61
2018-10-07T06:58:36.043Z,15.57
2018-10-07T06:59:36.112Z,15.56
2018-10-07T07:00:36.092Z,15.63
2018-10-07T07:01:36.148Z,15.67
2018-10-07T07:02:36.225Z,15.79
2018-10-07T07:03:36.239Z,15.84
2018-10-07T07:04:36.292Z,15.93
2018-10-07T07:05:36.351Z,16.01
2018-10-07T07:06:36.428Z,16.11
2018-10-07T07:07:36.470Z,16.16
2018-10-07T07:08:36.486Z,16.42
2018-10-07T07:09:36.537Z,16.62
2018-10-07T07:10:36.589Z,16.81
2018-10-07T07:11:36.639Z,16.88
2018-10-07T07:12:36.727Z,17.07
2018-10-07T07:13:36.736Z,17.33
2018-10-07T07:14:36.793Z,17.59
2018-10-07T07:15:36.839Z,17.87
2018-10-07T07:16:36.903Z,18.43
2018-10-07T07:17:36.957Z,19.25
2018-10-07T07:18:36.986Z,19.78
2018-10-07T07:19:37.098Z,20.35
2018-10-07T07:20:37.112Z,20.28
2018-10-07T07:21:37.150Z,20.34
2018-10-07T07:22:37.192Z,20.90
2018-10-07T07:23:37.241Z,21.42
2018-10-07T07:24:37.283Z,21.99
2018-10-07T07:25:37.358Z,22.52
2018-10-07T07:26:37.416Z,22.52
2018-10-07T07:27:37.434Z,21.57
2018-10-07T07:28:37.487Z,20.80
2018-10-07T07:29:37.541Z,20.08
2018-10-07T07:30:37.618Z,19.54
2018-10-07T07:31:37.639Z,19.29
2018-10-07T07:32:37.692Z,18.94
2018-10-07T07:33:37.742Z,18.84
2018-10-07T07:34:37.810Z,19.01
2018-10-07T07:35:37.863Z,19.15
2018-10-07T07:36:37.895Z,19.94
2018-10-07T07:37:37.948Z,20.18
2018-10-07T07:38:38.094Z,19.72
2018-10-07T07:39:38.050Z,19.36
2018-10-07T07:40:38.125Z,19.08
2018-10-07T07:41:38.149Z,19.01
2018-10-07T07:42:38.201Z,18.86
2018-10-07T07:43:38.269Z,18.84
2018-10-07T07:44:38.335Z,18.87
2018-10-07T07:45:38.501Z,18.87
2018-10-07T07:46:38.413Z,18.72
2018-10-07T07:47:38.473Z,18.62
2018-10-07T07:48:38.510Z,18.58
2018-10-07T07:49:38.565Z,18.70
2018-10-07T07:50:38.607Z,18.64
2018-10-07T07:51:38.667Z,18.72
2018-10-07T07:52:38.855Z,18.61
2018-10-07T07:53:38.763Z,18.77
2018-10-07T07:54:38.811Z,18.67
2018-10-07T07:55:38.864Z,18.67
2018-10-07T07:56:38.937Z,18.68
2018-10-07T07:57:38.964Z,18.68
2018-10-07T07:58:39.019Z,18.62
2018-10-07T07:59:39.086Z,18.70
2018-10-07T08:00:39.129Z,18.54
2018-10-07T08:01:39.192Z,18.34
2018-10-07T08:02:39.224Z,18.40
2018-10-07T08:03:39.306Z,18.40
2018-10-07T08:04:39.357Z,18.46
2018-10-07T08:05:39.380Z,18.49
2018-10-07T08:06:39.423Z,18.47
2018-10-07T08:07:39.474Z,18.36
2018-10-07T08:08:39.596Z,18.37
2018-10-07T08:09:39.687Z,18.34
2018-10-07T08:10:39.650Z,18.31
2018-10-07T08:11:39.678Z,18.40
2018-10-07T08:12:39.728Z,18.36
2018-10-07T08:13:39.804Z,18.25
2018-10-07T08:14:39.837Z,18.25
2018-10-07T08:15:39.889Z,18.25
2018-10-07T08:16:39.944Z,18.24
2018-10-07T08:17:40.016Z,18.25
2018-10-07T08:18:40.076Z,18.31
2018-10-07T08:19:40.092Z,18.46
2018-10-07T08:20:40.164Z,18.57
2018-10-07T08:21:40.219Z,18.64
2018-10-07T08:22:40.232Z,18.70
2018-10-07T08:23:40.349Z,18.72
2018-10-07T08:24:40.367Z,18.64
2018-10-07T08:25:40.396Z,18.67
2018-10-07T08:26:40.440Z,18.79
2018-10-07T08:27:40.503Z,18.84
2018-10-07T08:28:40.539Z,18.82
2018-10-07T08:29:40.713Z,18.77
2018-10-07T08:30:40.639Z,18.83
2018-10-07T08:31:40.688Z,18.91
2018-10-07T08:32:40.748Z,19.14
2018-10-07T08:33:40.798Z,19.32
2018-10-07T08:34:40.877Z,19.40
2018-10-07T08:35:40.919Z,19.43
2018-10-07T08:36:40.952Z,19.43
2018-10-07T08:37:41.000Z,19.72
2018-10-07T08:38:41.046Z,19.84
2018-10-07T08:39:41.098Z,20.00
2018-10-07T08:40:41.193Z,20.62
2018-10-07T08:41:41.292Z,21.23
2018-10-07T08:42:41.251Z,21.75
2018-10-07T08:43:41.305Z,21.98
2018-10-07T08:44:41.354Z,22.02
2018-10-07T08:45:41.425Z,21.57
2018-10-07T08:46:41.457Z,21.38
2018-10-07T08:47:41.509Z,21.34
2018-10-07T08:48:41.560Z,21.46
2018-10-07T08:49:41.624Z,21.94
2018-10-07T08:50:41.682Z,22.16
2018-10-07T08:51:41.736Z,22.31
2018-10-07T08:52:41.779Z,22.16
2018-10-07T08:53:41.827Z,22.44
2018-10-07T08:54:41.879Z,22.56
2018-10-07T08:55:41.937Z,22.74
2018-10-07T08:56:42.005Z,22.78
2018-10-07T08:57:42.033Z,22.78
2018-10-07T08:58:42.094Z,22.83
2018-10-07T08:59:42.143Z,22.84
2018-10-07T09:00:42.196Z,22.92
2018-10-07T09:01:42.261Z,23.34
2018-10-07T09:02:42.324Z,22.69
2018-10-07T09:03:42.357Z,22.68
2018-10-07T09:04:42.411Z,22.75
2018-10-07T09:05:42.470Z,23.04
2018-10-07T09:06:42.533Z,23.26
2018-10-07T09:07:42.706Z,23.12
2018-10-07T09:08:42.636Z,22.87
2018-10-07T09:09:42.686Z,22.83
2018-10-07T09:10:42.726Z,23.07
2018-10-07T09:11:42.793Z,23.08
2018-10-07T09:12:42.858Z,23.43
2018-10-07T09:13:42.890Z,23.77
2018-10-07T09:14:43.028Z,24.13
2018-10-07T09:15:43.010Z,24.31
2018-10-07T09:16:43.051Z,24.24
2018-10-07T09:17:43.128Z,24.23
2018-10-07T09:18:43.172Z,24.14
2018-10-07T09:19:43.240Z,23.95
2018-10-07T09:20:43.270Z,23.39
2018-10-07T09:21:43.361Z,23.20
2018-10-07T09:22:43.394Z,23.22
2018-10-07T09:23:43.454Z,23.46
2018-10-07T09:24:43.501Z,23.65
2018-10-07T09:25:43.541Z,23.57
2018-10-07T09:26:43.640Z,23.20
2018-10-07T09:27:43.653Z,23.04
2018-10-07T09:28:43.719Z,22.54
2018-10-07T09:29:43.777Z,22.35
2018-10-07T09:30:43.837Z,22.56
2018-10-07T09:31:43.877Z,22.65
2018-10-07T09:32:43.950Z,22.78
2018-10-07T09:33:44.110Z,22.82
2018-10-07T09:34:44.038Z,22.64
2018-10-07T09:35:44.116Z,22.65
2018-10-07T09:36:44.246Z,22.56
2018-10-07T09:37:44.216Z,22.80
2018-10-07T09:38:44.264Z,22.43
2018-10-07T09:39:44.413Z,22.13
2018-10-07T09:40:44.433Z,22.19
2018-10-07T09:41:44.451Z,22.49
2018-10-07T09:42:44.476Z,22.77
2018-10-07T09:43:44.538Z,23.04
2018-10-07T09:44:44.584Z,23.20
2018-10-07T09:45:44.642Z,23.09
2018-10-07T09:46:44.733Z,23.50
2018-10-07T09:47:44.750Z,23.45
2018-10-07T09:48:44.827Z,23.46
2018-10-07T09:49:44.859Z,23.57
2018-10-07T09:50:44.929Z,23.39
2018-10-07T09:51:44.979Z,23.67
2018-10-07T09:52:45.051Z,23.40
2018-10-07T09:53:45.083Z,23.39
2018-10-07T09:54:45.168Z,23.52
2018-10-07T09:55:45.218Z,22.89
2018-10-07T09:56:45.249Z,22.78
2018-10-07T09:57:45.339Z,22.62
2018-10-07T09:58:45.356Z,22.82
2018-10-07T09:59:45.419Z,22.86
2018-10-07T10:00:45.477Z,23.23
2018-10-07T10:01:45.523Z,23.67
2018-10-07T10:02:45.621Z,24.08
2018-10-07T10:03:45.651Z,24.42
2018-10-07T10:04:45.696Z,24.37
2018-10-07T10:05:45.785Z,24.34
2018-10-07T10:06:45.802Z,24.75
2018-10-07T10:07:45.855Z,24.80
2018-10-07T10:08:45.916Z,24.60
2018-10-07T10:09:45.988Z,24.82
2018-10-07T10:10:46.042Z,24.31
2018-10-07T10:11:46.084Z,24.45
2018-10-07T10:12:46.171Z,24.63
2018-10-07T10:13:46.211Z,24.82
2018-10-07T10:14:46.255Z,25.13
2018-10-07T10:15:46.303Z,25.13
2018-10-07T10:16:46.367Z,25.06
2018-10-07T10:17:46.452Z,25.19
2018-10-07T10:18:46.471Z,25.15
2018-10-07T10:19:46.621Z,25.43
2018-10-07T10:20:46.597Z,25.38
2018-10-07T10:21:46.653Z,25.24
2018-10-07T10:22:46.721Z,24.98
2018-10-07T10:23:46.760Z,24.68
2018-10-07T10:24:46.841Z,24.07
2018-10-07T10:25:46.863Z,23.95
2018-10-07T10:26:46.925Z,24.02
2018-10-07T10:27:46.984Z,24.34
2018-10-07T10:28:47.903Z,24.52
2018-10-07T10:29:47.111Z,24.34
2018-10-07T10:30:47.141Z,24.49
2018-10-07T10:31:47.203Z,24.07
2018-10-07T10:32:47.258Z,24.19
2018-10-07T10:33:47.346Z,24.13
2018-10-07T10:34:47.449Z,24.52
2018-10-07T10:35:47.428Z,24.47
2018-10-07T10:36:47.519Z,23.57
2018-10-07T10:37:47.555Z,22.90
2018-10-07T10:38:47.598Z,22.78
2018-10-07T10:39:47.747Z,22.75
2018-10-07T10:40:47.705Z,22.83
2018-10-07T10:41:47.769Z,22.80
2018-10-07T10:42:47.839Z,22.65
2018-10-07T10:43:47.878Z,22.43
2018-10-07T10:44:47.958Z,22.53
2018-10-07T10:45:47.993Z,22.74
2018-10-07T10:46:48.047Z,22.93
2018-10-07T10:47:48.097Z,23.20
2018-10-07T10:48:48.154Z,23.38
2018-10-07T10:49:48.246Z,23.50
2018-10-07T10:50:48.262Z,23.14
2018-10-07T10:51:48.347Z,22.86
2018-10-07T10:52:48.373Z,23.24
2018-10-07T10:53:48.431Z,23.68
2018-10-07T10:54:48.499Z,23.61
2018-10-07T10:55:48.558Z,23.31
2018-10-07T10:56:48.651Z,23.40
2018-10-07T10:57:48.651Z,22.78
2018-10-07T10:58:48.718Z,22.60
2018-10-07T10:59:48.763Z,22.53
2018-10-07T11:00:48.890Z,22.89
2018-10-07T11:01:48.908Z,23.12
2018-10-07T11:02:48.933Z,23.46
2018-10-07T11:03:48.988Z,23.31
2018-10-07T11:04:49.052Z,23.11
2018-10-07T11:05:49.097Z,23.27
2018-10-07T11:06:49.172Z,23.79
2018-10-07T11:07:49.205Z,24.13
2018-10-07T11:08:49.260Z,24.49
2018-10-07T11:09:49.326Z,24.94
2018-10-07T11:10:49.382Z,25.09
2018-10-07T11:11:49.449Z,25.42
2018-10-07T11:12:49.509Z,24.94
2018-10-07T11:13:49.634Z,25.07
2018-10-07T11:14:49.600Z,25.37
2018-10-07T11:15:49.707Z,25.56
2018-10-07T11:16:49.707Z,24.16
2018-10-07T11:17:49.761Z,23.50
2018-10-07T11:18:49.847Z,23.71
2018-10-07T11:19:49.878Z,23.60
2018-10-07T11:20:49.929Z,23.71
2018-10-07T11:21:50.930Z,23.35
2018-10-07T11:22:50.046Z,23.24
2018-10-07T11:23:50.116Z,23.39
2018-10-07T11:24:50.180Z,23.49
2018-10-07T11:25:50.211Z,23.89
2018-10-07T11:26:50.268Z,24.04
2018-10-07T11:27:50.327Z,23.64
2018-10-07T11:28:50.383Z,23.79
2018-10-07T11:29:50.462Z,23.80
2018-10-07T11:30:50.492Z,24.22
2018-10-07T11:31:50.551Z,24.42
2018-10-07T11:32:50.607Z,24.29
2018-10-07T11:33:50.666Z,24.26
2018-10-07T11:34:50.811Z,24.44
2018-10-07T11:35:50.775Z,25.05
2018-10-07T11:36:50.835Z,25.19
2018-10-07T11:37:50.893Z,25.16
2018-10-07T11:38:50.941Z,24.77
2018-10-07T11:39:51.039Z,24.88
2018-10-07T11:40:51.117Z,25.09
2018-10-07T11:41:51.114Z,25.37
2018-10-07T11:42:51.165Z,25.65
2018-10-07T11:43:51.221Z,25.84
2018-10-07T11:44:51.318Z,26.09
2018-10-07T11:45:51.337Z,26.29
2018-10-07T11:46:51.450Z,26.11
2018-10-07T11:47:51.453Z,26.21
2018-10-07T11:48:51.510Z,26.06
2018-10-07T11:49:51.567Z,26.09
2018-10-07T11:50:51.626Z,26.17
2018-10-07T11:51:51.735Z,26.25
2018-10-07T11:52:51.811Z,26.25
2018-10-07T11:53:51.809Z,26.27
2018-10-07T11:54:51.849Z,26.57
2018-10-07T11:55:51.912Z,26.81
2018-10-07T11:56:51.987Z,26.91
2018-10-07T11:57:52.022Z,26.89
2018-10-07T11:58:52.084Z,26.65
2018-10-07T11:59:52.143Z,26.64
2018-10-07T12:00:52.201Z,26.64
2018-10-07T12:01:52.275Z,26.58
2018-10-07T12:02:52.464Z,26.49
2018-10-07T12:03:53.451Z,26.37
2018-10-07T12:04:52.427Z,26.21
2018-10-07T12:05:52.486Z,25.99
2018-10-07T12:06:52.545Z,25.93
2018-10-07T12:07:52.603Z,25.74
2018-10-07T12:08:52.693Z,25.74
2018-10-07T12:09:52.737Z,25.93
2018-10-07T12:10:52.779Z,25.79
2018-10-07T12:11:52.877Z,25.75
2018-10-07T12:12:52.896Z,25.72
2018-10-07T12:13:52.961Z,25.67
2018-10-07T12:14:53.041Z,25.61
2018-10-07T12:15:53.077Z,25.79
2018-10-07T12:16:53.137Z,25.91
2018-10-07T12:17:53.187Z,26.09
2018-10-07T12:18:53.251Z,26.22
2018-10-07T12:19:53.428Z,26.24
2018-10-07T12:20:53.363Z,26.25
2018-10-07T12:21:53.431Z,26.52
2018-10-07T12:22:53.509Z,26.67
2018-10-07T12:23:53.548Z,26.57
2018-10-07T12:24:53.605Z,26.58
2018-10-07T12:25:53.695Z,26.68
2018-10-07T12:26:53.788Z,26.64
2018-10-07T12:27:53.790Z,26.24
2018-10-07T12:28:53.893Z,25.93
2018-10-07T12:29:53.904Z,25.80
2018-10-07T12:30:53.994Z,25.82
2018-10-07T12:31:54.014Z,25.64
2018-10-07T12:32:54.072Z,25.77
2018-10-07T12:33:54.140Z,25.93
2018-10-07T12:34:54.193Z,25.98
2018-10-07T12:35:54.269Z,25.71
2018-10-07T12:36:54.317Z,25.79
2018-10-07T12:37:54.370Z,25.99
2018-10-07T12:38:55.277Z,26.11
2018-10-07T12:39:54.491Z,26.27
2018-10-07T12:40:54.568Z,25.91
2018-10-07T12:41:54.626Z,25.94
2018-10-07T12:42:54.667Z,26.09
2018-10-07T12:43:54.727Z,26.17
2018-10-07T12:44:54.794Z,26.35
2018-10-07T12:45:54.869Z,26.15
2018-10-07T12:46:54.907Z,26.31
2018-10-07T12:47:55.038Z,26.62
2018-10-07T12:48:55.037Z,26.49
2018-10-07T12:49:55.089Z,26.18
2018-10-07T12:50:55.174Z,25.91
2018-10-07T12:51:55.203Z,25.64
2018-10-07T12:52:55.280Z,25.37